Time;durP1;ratioP1;P1;durP2;ratioP2;P2;SDS_P1;SDS_P2;PMS_P1;PMS_P2;Temp;Humidity;BMP_temperature;BMP_pressure;BME280_temperature;BME280_humidity;BME280_pressure;Samples;Min_cycle;Max_cycle;Signal;HPM_P1;HPM_P2
2023/09/09 00:01:57;;;;;;;26.25;23.83;;;20.80;99.90;;;;;;5016235;28;20041;-88
2023/09/09 00:04:23;;;;;;;25.45;23.05;;;20.80;99.90;;;;;;5032669;28;20053;-88
2023/09/09 00:06:48;;;;;;;27.77;25.15;;;20.80;99.90;;;;;;5016589;28;20033;-88
2023/09/09 00:09:15;;;;;;;20.65;18.52;;;20.80;99.90;;;;;;5025312;28;20517;-85
2023/09/09 00:11:40;;;;;;;17.13;13.25;;;20.80;99.90;;;;;;5035304;28;20116;-87
2023/09/09 00:14:06;;;;;;;15.63;13.93;;;20.70;99.90;;;;;;5033382;28;20577;-87
2023/09/09 00:16:34;;;;;;;16.95;13.30;;;20.60;99.90;;;;;;5033714;28;20045;-86
2023/09/09 00:19:00;;;;;;;18.30;13.43;;;20.60;99.90;;;;;;5033161;28;20030;-87
2023/09/09 00:21:25;;;;;;;15.05;13.35;;;20.50;99.90;;;;;;5033403;28;20500;-88
2023/09/09 00:23:51;;;;;;;16.50;12.80;;;20.50;99.90;;;;;;5033315;28;20043;-87
2023/09/09 00:26:16;;;;;;;14.13;12.43;;;20.40;99.90;;;;;;5033229;28;20132;-88
2023/09/09 00:28:42;;;;;;;12.23;9.43;;;20.30;99.90;;;;;;5015955;28;20033;-88
2023/09/09 00:31:07;;;;;;;9.77;7.85;;;20.30;99.90;;;;;;5032427;28;20045;-88
2023/09/09 00:33:33;;;;;;;11.68;7.72;;;20.20;99.90;;;;;;5015809;28;20033;-89
2023/09/09 00:36:01;;;;;;;11.05;8.52;;;20.20;99.90;;;;;;5016502;28;20447;-88
2023/09/09 00:38:27;;;;;;;10.98;9.10;;;20.10;99.90;;;;;;5015164;28;20076;-88
2023/09/09 00:41:15;;;;;;;12.63;9.70;;;20.10;99.90;;;;;;5016086;28;20076;-88
2023/09/09 00:43:41;;;;;;;16.67;14.90;;;20.10;99.90;;;;;;5032214;28;20076;-88
2023/09/09 00:46:08;;;;;;;16.00;14.27;;;20.00;99.90;;;;;;5014832;28;20045;-88
2023/09/09 00:48:34;;;;;;;18.35;16.58;;;20.00;99.90;;;;;;5015635;28;20049;-88
2023/09/09 00:51:00;;;;;;;21.20;19.20;;;20.00;99.90;;;;;;5015385;28;20045;-88
2023/09/09 00:53:26;;;;;;;16.95;14.23;;;20.10;99.90;;;;;;5032237;28;20033;-88
2023/09/09 00:55:53;;;;;;;12.45;7.78;;;20.10;99.90;;;;;;5015604;28;20033;-88
2023/09/09 00:58:19;;;;;;;11.50;8.40;;;19.90;99.90;;;;;;5032166;28;20502;-88
2023/09/09 01:00:45;;;;;;;11.20;8.65;;;19.70;99.90;;;;;;5032115;28;20132;-88
2023/09/09 01:03:11;;;;;;;11.50;7.82;;;19.60;99.90;;;;;;5033097;28;20037;-89
2023/09/09 01:05:38;;;;;;;9.50;7.03;;;19.50;99.90;;;;;;5032070;28;20087;-88
2023/09/09 01:08:05;;;;;;;9.75;7.50;;;19.40;99.90;;;;;;5203820;22;20030;-96
2023/09/09 01:10:32;;;;;;;9.82;7.28;;;19.30;99.90;;;;;;5029804;28;20101;-97
2023/09/09 01:13:07;;;;;;;11.48;8.00;;;19.30;99.90;;;;;;5019434;28;20049;-96
2023/09/09 01:21:54;;;;;;;14.95;12.50;;;19.30;99.90;;;;;;5031229;28;20076;-87
2023/09/09 01:24:20;;;;;;;15.25;13.75;;;19.30;99.90;;;;;;5014931;28;20049;-87
2023/09/09 01:26:46;;;;;;;18.33;16.63;;;19.30;99.90;;;;;;5031450;28;20139;-88
2023/09/09 01:29:12;;;;;;;19.95;18.15;;;19.40;99.90;;;;;;5032655;28;20040;-88
2023/09/09 01:31:38;;;;;;;16.67;14.10;;;19.40;99.90;;;;;;5033542;28;20037;-88
2023/09/09 01:34:04;;;;;;;13.85;11.13;;;19.40;99.90;;;;;;5034227;28;20045;-88
2023/09/09 01:36:30;;;;;;;11.57;10.43;;;19.40;99.90;;;;;;5017442;28;20162;-88
2023/09/09 01:38:55;;;;;;;16.67;15.10;;;19.30;99.90;;;;;;5033286;28;20159;-87
2023/09/09 01:41:21;;;;;;;15.93;14.32;;;19.30;99.90;;;;;;5034804;28;20044;-88
2023/09/09 01:43:47;;;;;;;14.55;13.15;;;19.30;99.90;;;;;;5034555;28;20453;-88
2023/09/09 01:46:12;;;;;;;18.90;17.10;;;19.30;99.90;;;;;;5017213;28;20041;-88
2023/09/09 01:48:39;;;;;;;18.25;16.55;;;19.30;99.90;;;;;;5016528;28;20397;-88
2023/09/09 01:51:05;;;;;;;18.05;16.45;;;19.30;99.90;;;;;;5033367;28;20037;-88
2023/09/09 01:53:31;;;;;;;17.85;16.08;;;19.20;99.90;;;;;;5033260;28;20037;-88
2023/09/09 01:55:58;;;;;;;15.68;14.07;;;19.30;99.90;;;;;;5033519;28;20044;-88
2023/09/09 01:58:23;;;;;;;20.10;18.20;;;19.30;99.90;;;;;;5033194;28;20047;-89
2023/09/09 02:00:49;;;;;;;27.48;24.92;;;19.30;99.90;;;;;;5034632;28;20104;-89
2023/09/09 02:03:15;;;;;;;19.27;17.33;;;19.30;99.90;;;;;;5034658;28;20412;-89
2023/09/09 02:05:40;;;;;;;21.25;19.17;;;19.30;99.90;;;;;;5017736;28;20044;-89
2023/09/09 02:08:06;;;;;;;22.25;20.25;;;19.30;99.90;;;;;;5034255;28;20491;-89
2023/09/09 02:10:32;;;;;;;25.08;22.58;;;19.20;99.90;;;;;;5034075;28;20036;-88
2023/09/09 02:12:58;;;;;;;20.95;18.95;;;19.30;99.90;;;;;;5033937;28;20041;-88
2023/09/09 02:15:23;;;;;;;19.25;17.23;;;19.20;99.90;;;;;;5034484;28;20036;-89
2023/09/09 02:17:49;;;;;;;23.55;21.45;;;19.20;99.90;;;;;;5033801;28;20057;-89
2023/09/09 02:20:14;;;;;;;25.40;23.08;;;19.20;99.90;;;;;;5017503;28;20073;-89
2023/09/09 02:22:40;;;;;;;23.20;20.90;;;19.30;99.90;;;;;;5017336;28;20041;-89
2023/09/09 02:25:07;;;;;;;23.00;20.90;;;19.30;99.90;;;;;;5034385;28;20044;-88
2023/09/09 02:27:33;;;;;;;16.77;14.95;;;19.20;99.90;;;;;;5016607;28;20044;-88
2023/09/09 02:29:59;;;;;;;18.90;16.92;;;19.20;99.90;;;;;;5034243;28;20037;-89
2023/09/09 02:32:24;;;;;;;21.67;19.67;;;19.10;99.90;;;;;;5017698;28;20081;-89
2023/09/09 02:34:50;;;;;;;22.08;20.02;;;19.00;99.90;;;;;;5033590;28;20077;-88
2023/09/09 02:37:21;;;;;;;21.17;19.10;;;19.00;99.90;;;;;;5033517;28;20047;-89
2023/09/09 02:39:50;;;;;;;25.85;23.38;;;19.00;99.90;;;;;;5016416;28;20040;-89
2023/09/09 02:42:18;;;;;;;18.00;13.57;;;19.00;99.90;;;;;;5035504;28;20503;-89
2023/09/09 02:44:44;;;;;;;14.50;13.00;;;18.90;99.90;;;;;;5038064;28;20040;-89
2023/09/09 02:47:12;;;;;;;12.20;10.85;;;18.90;99.90;;;;;;5037836;28;20041;-89
2023/09/09 02:49:42;;;;;;;18.63;17.02;;;18.80;99.90;;;;;;5037179;28;20614;-89
2023/09/09 02:52:08;;;;;;;13.98;11.52;;;18.80;99.90;;;;;;5037079;28;20040;-89
2023/09/09 02:54:34;;;;;;;13.25;9.60;;;18.70;99.90;;;;;;5036374;28;20041;-88
2023/09/09 02:57:00;;;;;;;10.93;7.75;;;18.60;99.90;;;;;;5036162;28;20036;-87
2023/09/09 02:59:26;;;;;;;10.27;7.18;;;18.60;99.90;;;;;;5020984;28;20554;-89
2023/09/09 03:01:51;;;;;;;9.10;6.28;;;18.50;99.90;;;;;;5037489;28;20097;-88
2023/09/09 03:04:19;;;;;;;9.77;8.20;;;18.50;99.90;;;;;;5037253;28;20037;-87
2023/09/09 03:06:45;;;;;;;13.43;11.13;;;18.40;99.90;;;;;;5036908;28;20044;-88
2023/09/09 03:09:11;;;;;;;19.00;17.10;;;18.40;99.90;;;;;;5036600;28;20040;-88
2023/09/09 03:11:36;;;;;;;20.50;18.38;;;18.40;99.90;;;;;;5037053;28;20499;-88
2023/09/09 03:14:02;;;;;;;18.73;15.45;;;18.50;99.90;;;;;;5020997;28;20033;-87
2023/09/09 03:16:28;;;;;;;17.17;14.50;;;18.40;99.90;;;;;;5037309;28;20518;-87
2023/09/09 03:18:53;;;;;;;14.68;13.02;;;18.30;99.90;;;;;;5037421;28;20048;-88
2023/09/09 03:21:19;;;;;;;20.35;18.25;;;18.30;99.90;;;;;;5037214;28;20069;-87
2023/09/09 03:23:45;;;;;;;17.73;12.75;;;18.20;99.90;;;;;;5036913;28;20099;-87
2023/09/09 03:26:18;;;;;;;18.15;16.42;;;18.20;99.90;;;;;;5020494;28;20041;-87
2023/09/09 03:28:46;;;;;;;19.80;14.60;;;18.20;99.90;;;;;;5020643;28;20048;-88
2023/09/09 03:31:12;;;;;;;17.25;15.52;;;18.20;99.90;;;;;;5019737;28;20036;-88
2023/09/09 03:33:38;;;;;;;14.77;13.23;;;18.20;99.90;;;;;;5036696;28;20090;-87
2023/09/09 03:36:05;;;;;;;15.65;14.15;;;18.20;99.90;;;;;;5020369;28;20037;-87
2023/09/09 03:38:30;;;;;;;21.25;19.15;;;18.20;99.90;;;;;;5019896;28;20037;-87
2023/09/09 03:40:56;;;;;;;18.48;13.63;;;18.30;99.90;;;;;;5020916;28;20067;-87
2023/09/09 03:43:21;;;;;;;18.73;16.88;;;18.20;99.90;;;;;;5037103;28;20495;-87
2023/09/09 03:45:53;;;;;;;21.25;19.15;;;18.20;99.90;;;;;;5020476;28;20048;-87
2023/09/09 03:48:19;;;;;;;24.33;22.02;;;18.30;99.90;;;;;;5036457;28;20044;-87
2023/09/09 03:50:44;;;;;;;24.55;22.30;;;18.30;99.90;;;;;;5036686;28;20043;-87
2023/09/09 03:53:10;;;;;;;29.48;26.73;;;18.30;99.90;;;;;;5036103;28;20131;-88
2023/09/09 03:55:35;;;;;;;24.13;21.25;;;18.30;99.90;;;;;;5036770;28;20044;-88
2023/09/09 03:58:01;;;;;;;33.95;30.98;;;18.30;99.90;;;;;;5036402;28;20033;-87
2023/09/09 04:00:27;;;;;;;36.08;32.97;;;18.30;99.90;;;;;;5019887;28;20438;-88
2023/09/09 04:02:52;;;;;;;39.28;35.53;;;18.40;99.90;;;;;;5036180;28;20052;-88
2023/09/09 04:05:18;;;;;;;23.67;21.48;;;18.40;99.90;;;;;;5019770;28;20068;-88
2023/09/09 04:07:44;;;;;;;23.40;20.98;;;18.40;99.90;;;;;;5020005;28;20041;-88
2023/09/09 04:10:11;;;;;;;21.73;19.63;;;18.40;99.90;;;;;;5036467;28;20112;-88
2023/09/09 04:12:37;;;;;;;19.73;17.83;;;18.30;99.90;;;;;;5035778;28;20057;-87
2023/09/09 04:15:03;;;;;;;16.35;14.75;;;18.30;99.90;;;;;;5019093;28;20389;-88
2023/09/09 04:17:29;;;;;;;19.42;17.52;;;18.30;99.90;;;;;;5035095;28;20041;-88
2023/09/09 04:19:56;;;;;;;22.13;20.00;;;18.20;99.90;;;;;;5019695;28;20051;-88
2023/09/09 04:22:22;;;;;;;22.70;20.50;;;18.20;99.90;;;;;;5036615;28;20124;-87
2023/09/09 04:24:47;;;;;;;21.90;19.80;;;18.20;99.90;;;;;;5036189;28;20076;-87
2023/09/09 04:27:13;;;;;;;24.70;22.17;;;18.20;99.90;;;;;;5035872;28;20033;-88
2023/09/09 04:29:39;;;;;;;22.40;18.02;;;18.20;99.90;;;;;;5032039;28;20488;-87
2023/09/09 04:32:04;;;;;;;32.60;29.63;;;18.20;99.90;;;;;;5016291;28;20046;-87
2023/09/09 04:34:30;;;;;;;27.80;25.20;;;18.20;99.90;;;;;;5016570;28;20033;-87
2023/09/09 04:36:56;;;;;;;34.47;31.38;;;18.20;99.90;;;;;;5015193;28;20041;-87
2023/09/09 04:39:21;;;;;;;39.90;36.40;;;18.20;99.90;;;;;;5015816;28;20412;-87
2023/09/09 04:41:47;;;;;;;37.03;33.63;;;18.30;99.90;;;;;;5032205;28;20052;-88
2023/09/09 04:44:12;;;;;;;37.55;34.25;;;18.30;99.90;;;;;;5032503;28;20049;-88
2023/09/09 04:46:38;;;;;;;39.83;36.40;;;18.30;99.90;;;;;;5015838;28;20045;-88
2023/09/09 04:49:04;;;;;;;43.20;39.40;;;18.30;99.90;;;;;;5015916;28;20087;-88
2023/09/09 04:51:30;;;;;;;38.92;35.53;;;18.30;99.90;;;;;;5032110;28;20052;-87
2023/09/09 04:53:56;;;;;;;42.10;38.42;;;18.40;99.90;;;;;;5031851;28;20041;-88
2023/09/09 04:56:22;;;;;;;42.47;38.78;;;18.40;99.90;;;;;;5032118;28;20045;-88
2023/09/09 04:58:48;;;;;;;41.53;37.92;;;18.40;99.90;;;;;;5031845;28;20124;-88
2023/09/09 05:01:13;;;;;;;39.92;36.22;;;18.40;99.90;;;;;;5032460;28;20657;-87
2023/09/09 05:03:39;;;;;;;28.08;21.00;;;18.40;99.90;;;;;;5032323;28;20037;-87
2023/09/09 05:06:04;;;;;;;38.67;35.17;;;18.30;99.90;;;;;;5015723;28;20195;-88
2023/09/09 05:08:30;;;;;;;27.90;25.30;;;18.30;99.90;;;;;;5032071;28;20042;-87
2023/09/09 05:10:56;;;;;;;21.95;19.95;;;18.30;99.90;;;;;;5032131;28;20034;-87
2023/09/09 05:13:21;;;;;;;17.33;15.63;;;18.20;99.90;;;;;;5031316;28;20455;-87
2023/09/09 05:15:47;;;;;;;15.32;13.85;;;18.10;99.90;;;;;;5030643;28;20045;-87
2023/09/09 05:18:13;;;;;;;14.45;13.13;;;18.10;99.90;;;;;;5031471;28;20041;-87
2023/09/09 05:20:39;;;;;;;13.20;11.90;;;18.00;99.90;;;;;;5031820;28;20037;-87
2023/09/09 05:23:04;;;;;;;14.75;13.25;;;17.90;99.90;;;;;;5031964;28;20045;-87
2023/09/09 05:25:30;;;;;;;18.33;16.52;;;17.90;99.90;;;;;;5032040;28;20523;-87
2023/09/09 05:27:55;;;;;;;20.88;14.75;;;17.90;99.90;;;;;;5031387;28;20073;-88
2023/09/09 05:30:21;;;;;;;37.80;34.50;;;17.90;99.90;;;;;;5031903;28;20412;-88
2023/09/09 05:32:47;;;;;;;37.10;33.75;;;18.00;99.90;;;;;;5015637;28;20053;-88
2023/09/09 05:35:12;;;;;;;37.92;34.65;;;18.10;99.90;;;;;;5015332;28;20518;-87
2023/09/09 05:37:39;;;;;;;38.65;35.35;;;18.10;99.90;;;;;;5014895;28;20033;-87
2023/09/09 05:40:05;;;;;;;36.83;33.53;;;18.20;99.90;;;;;;5031254;28;20042;-88
2023/09/09 05:42:31;;;;;;;38.40;35.10;;;18.20;99.90;;;;;;5015000;28;20056;-87
2023/09/09 05:44:57;;;;;;;41.15;37.58;;;18.20;99.90;;;;;;5015292;28;20045;-87
2023/09/09 05:47:22;;;;;;;40.35;36.83;;;18.30;99.90;;;;;;5014443;28;20037;-87
2023/09/09 05:49:48;;;;;;;41.53;38.03;;;18.30;99.90;;;;;;5030568;28;20500;-87
2023/09/09 05:52:14;;;;;;;29.33;26.15;;;18.30;99.90;;;;;;5030423;28;20421;-88
2023/09/09 05:54:39;;;;;;;42.53;38.83;;;18.30;99.90;;;;;;5030724;28;20038;-88
2023/09/09 05:57:05;;;;;;;43.35;39.38;;;18.30;99.90;;;;;;5031211;28;20044;-87
2023/09/09 05:59:32;;;;;;;38.05;34.60;;;18.40;99.90;;;;;;5030926;28;20843;-88
2023/09/09 06:01:57;;;;;;;38.78;35.17;;;18.40;99.90;;;;;;5030157;28;20045;-88
2023/09/09 06:04:23;;;;;;;31.45;28.67;;;18.40;99.90;;;;;;5013961;28;20039;-87
2023/09/09 06:06:49;;;;;;;28.67;26.10;;;18.50;99.90;;;;;;5031163;28;20041;-88
2023/09/09 06:09:15;;;;;;;29.73;27.13;;;18.50;99.90;;;;;;5030556;28;20047;-88
2023/09/09 06:11:40;;;;;;;29.58;26.98;;;18.50;99.90;;;;;;5030836;28;20049;-87
2023/09/09 06:14:06;;;;;;;22.65;19.27;;;18.50;99.90;;;;;;5031480;28;20049;-88
2023/09/09 06:16:32;;;;;;;28.25;25.75;;;18.40;99.90;;;;;;5014678;28;20075;-88
2023/09/09 06:18:58;;;;;;;34.15;31.15;;;18.40;99.90;;;;;;5030697;28;20040;-88
2023/09/09 06:21:25;;;;;;;35.03;31.95;;;18.50;99.90;;;;;;5030567;28;20037;-88
2023/09/09 06:23:50;;;;;;;40.20;36.25;;;18.60;99.90;;;;;;5030510;28;20049;-87
2023/09/09 06:26:16;;;;;;;39.13;35.53;;;18.60;99.90;;;;;;5030164;28;20041;-87
2023/09/09 06:28:41;;;;;;;37.55;34.22;;;18.70;99.90;;;;;;5030437;28;20057;-87
2023/09/09 06:31:07;;;;;;;40.95;37.28;;;18.80;99.90;;;;;;5030523;28;20077;-88
2023/09/09 06:33:33;;;;;;;39.17;35.58;;;18.90;99.90;;;;;;5014381;28;20091;-87
2023/09/09 06:35:59;;;;;;;40.05;36.40;;;18.90;99.90;;;;;;5030930;28;20037;-88
2023/09/09 06:38:25;;;;;;;39.63;36.25;;;19.00;99.90;;;;;;5035118;28;20033;-88
2023/09/09 06:40:50;;;;;;;42.17;38.47;;;19.10;99.90;;;;;;5024378;28;20049;-87
2023/09/09 06:43:21;;;;;;;43.08;39.45;;;19.20;99.90;;;;;;5041934;28;20033;-88
2023/09/09 06:45:50;;;;;;;40.22;36.72;;;19.20;99.90;;;;;;5041804;28;20045;-88
2023/09/09 06:48:18;;;;;;;39.85;36.15;;;19.30;99.90;;;;;;5050155;28;20465;-88
2023/09/09 06:50:47;;;;;;;40.95;37.40;;;19.40;99.90;;;;;;5049736;28;20098;-88
2023/09/09 06:53:13;;;;;;;39.65;36.10;;;19.50;99.90;;;;;;5050495;28;20080;-88
2023/09/09 06:55:46;;;;;;;38.58;35.08;;;19.60;99.90;;;;;;5034266;28;20437;-88
2023/09/09 06:58:12;;;;;;;39.53;35.78;;;19.60;99.90;;;;;;5050337;28;20126;-88
2023/09/09 07:00:38;;;;;;;38.00;34.30;;;19.70;99.90;;;;;;5050475;28;20104;-88
2023/09/09 07:03:04;;;;;;;40.45;36.80;;;19.80;99.90;;;;;;5033660;28;20037;-88
2023/09/09 07:05:33;;;;;;;38.80;35.35;;;19.90;99.90;;;;;;5050261;28;20045;-88
2023/09/09 07:07:59;;;;;;;37.42;34.00;;;20.00;99.90;;;;;;5032921;28;20048;-88
2023/09/09 07:10:25;;;;;;;36.45;33.22;;;20.00;99.90;;;;;;5049081;28;20033;-88
2023/09/09 07:12:51;;;;;;;36.45;33.28;;;20.10;99.90;;;;;;5031895;28;20041;-88
2023/09/09 07:15:17;;;;;;;36.85;33.63;;;20.20;99.90;;;;;;5048421;28;20086;-88
2023/09/09 07:17:46;;;;;;;37.22;33.72;;;20.30;99.90;;;;;;5048173;28;20040;-88
2023/09/09 07:20:12;;;;;;;37.75;34.35;;;20.30;99.90;;;;;;5048062;28;20033;-88
2023/09/09 07:22:38;;;;;;;39.33;35.75;;;20.40;99.90;;;;;;5032147;28;20128;-88
2023/09/09 07:25:04;;;;;;;38.35;34.95;;;20.50;99.90;;;;;;5047985;28;20119;-87
2023/09/09 07:27:30;;;;;;;40.35;36.95;;;20.50;99.90;;;;;;5033296;28;20041;-88
2023/09/09 07:29:55;;;;;;;38.92;35.53;;;20.60;99.90;;;;;;5051254;28;20499;-88
2023/09/09 07:32:21;;;;;;;39.88;36.22;;;20.70;99.90;;;;;;5036812;28;20037;-88
2023/09/09 07:34:46;;;;;;;37.65;34.47;;;20.70;99.90;;;;;;5053722;28;20037;-88
2023/09/09 07:37:12;;;;;;;38.75;35.42;;;20.80;99.90;;;;;;5036084;28;20044;-88
2023/09/09 07:39:50;;;;;;;39.67;36.17;;;20.80;99.90;;;;;;5053545;28;20037;-88
2023/09/09 07:42:15;;;;;;;39.72;36.03;;;20.90;99.90;;;;;;5053307;28;20049;-88
2023/09/09 07:44:42;;;;;;;39.30;35.80;;;21.00;99.90;;;;;;5053686;28;20044;-88
2023/09/09 07:47:08;;;;;;;38.88;35.47;;;21.10;99.90;;;;;;5051001;28;20045;-89
2023/09/09 07:49:34;;;;;;;39.17;35.65;;;21.20;99.90;;;;;;5022579;28;20037;-89
2023/09/09 07:52:00;;;;;;;37.42;34.20;;;21.30;99.90;;;;;;5017995;28;20048;-89
2023/09/09 07:54:26;;;;;;;39.28;35.42;;;21.40;99.90;;;;;;5018749;28;20033;-88
2023/09/09 07:56:53;;;;;;;37.65;34.28;;;21.40;99.90;;;;;;5035786;28;20048;-88
2023/09/09 07:59:18;;;;;;;40.42;36.78;;;21.50;99.90;;;;;;5034670;28;20404;-89
2023/09/09 08:01:44;;;;;;;40.22;36.70;;;21.60;99.90;;;;;;5004934;28;20044;-88
2023/09/09 08:04:10;;;;;;;37.33;34.10;;;21.70;99.90;;;;;;5017648;28;20041;-88
2023/09/09 08:06:36;;;;;;;41.35;37.60;;;21.70;99.90;;;;;;5036150;28;20044;-88
2023/09/09 08:09:02;;;;;;;42.88;38.90;;;21.80;99.90;;;;;;5034881;28;20041;-89
2023/09/09 08:11:27;;;;;;;42.60;38.67;;;21.90;99.90;;;;;;5035827;28;20051;-89
2023/09/09 08:13:53;;;;;;;44.42;40.53;;;22.00;99.90;;;;;;5003465;28;20133;-89
2023/09/09 08:16:18;;;;;;;40.78;36.97;;;22.10;99.90;;;;;;5019010;28;20506;-88
2023/09/09 08:18:44;;;;;;;43.33;39.55;;;22.10;99.90;;;;;;5004707;28;20049;-89
2023/09/09 08:21:12;;;;;;;47.67;43.38;;;22.20;99.90;;;;;;5033789;28;20033;-89
2023/09/09 08:23:38;;;;;;;46.72;42.58;;;22.30;99.90;;;;;;5034966;28;20048;-88
2023/09/09 08:26:04;;;;;;;46.85;42.90;;;22.40;99.90;;;;;;5034627;28;20033;-88
2023/09/09 08:28:29;;;;;;;45.17;41.28;;;22.40;99.90;;;;;;5035418;28;20116;-89
2023/09/09 08:30:59;;;;;;;45.45;41.50;;;22.50;99.90;;;;;;5034664;28;20496;-90
2023/09/09 08:33:24;;;;;;;44.78;40.97;;;22.50;99.90;;;;;;5018844;28;20040;-89
2023/09/09 08:35:50;;;;;;;45.70;41.60;;;22.70;99.90;;;;;;5035422;28;20082;-88
2023/09/09 08:38:16;;;;;;;46.83;42.83;;;22.70;99.90;;;;;;5034633;28;20109;-89
2023/09/09 08:40:59;;;;;;;44.92;40.83;;;22.80;99.90;;;;;;5034996;28;20041;-89
2023/09/09 08:43:47;;;;;;;44.72;40.60;;;22.90;99.90;;;;;;5035355;28;20044;-89
2023/09/09 08:46:15;;;;;;;42.22;38.50;;;23.00;99.90;;;;;;5034706;28;20071;-89
2023/09/09 08:48:42;;;;;;;42.78;39.08;;;23.00;99.90;;;;;;5034799;28;20053;-90
2023/09/09 08:51:14;;;;;;;45.47;41.45;;;23.10;99.90;;;;;;5033843;28;20618;-89
2023/09/09 08:53:41;;;;;;;44.17;40.17;;;23.20;99.90;;;;;;5030682;28;20048;-89
2023/09/09 08:56:07;;;;;;;43.35;39.65;;;23.20;99.90;;;;;;5029989;28;20076;-90
2023/09/09 08:58:33;;;;;;;41.95;38.33;;;23.40;99.90;;;;;;5033679;28;20064;-89
2023/09/09 09:00:59;;;;;;;43.50;39.70;;;23.40;99.90;;;;;;5017718;28;20103;-89
2023/09/09 09:03:26;;;;;;;41.05;37.47;;;23.50;99.90;;;;;;5035066;28;20093;-90
2023/09/09 09:05:54;;;;;;;42.50;38.55;;;23.60;99.90;;;;;;5035164;28;20045;-90
2023/09/09 09:08:20;;;;;;;43.10;39.20;;;23.60;99.90;;;;;;5018005;28;20053;-90
2023/09/09 09:10:47;;;;;;;42.15;38.25;;;23.70;99.90;;;;;;5034581;28;20039;-89
2023/09/09 09:13:13;;;;;;;40.88;37.17;;;23.80;99.90;;;;;;5034749;28;20103;-90
2023/09/09 09:15:41;;;;;;;40.25;36.72;;;23.90;99.90;;;;;;5004896;28;20387;-90
2023/09/09 09:18:08;;;;;;;38.90;35.50;;;23.90;99.90;;;;;;5031324;28;20048;-90
2023/09/09 09:20:35;;;;;;;40.80;37.17;;;24.00;99.90;;;;;;5034672;28;20179;-89
2023/09/09 09:23:03;;;;;;;40.15;36.47;;;24.10;99.90;;;;;;5001846;28;20068;-90
2023/09/09 09:25:42;;;;;;;40.10;36.50;;;24.20;99.90;;;;;;5034392;28;20507;-89
2023/09/09 09:28:08;;;;;;;40.80;36.92;;;24.30;99.90;;;;;;5034065;28;20051;-89
2023/09/09 09:30:34;;;;;;;38.03;34.60;;;24.30;99.90;;;;;;5034633;28;20044;-90
2023/09/09 09:33:00;;;;;;;40.20;36.58;;;24.40;99.90;;;;;;5034228;28;20060;-90
2023/09/09 09:35:30;;;;;;;40.72;37.13;;;24.50;99.90;;;;;;5038405;28;20045;-90
2023/09/09 09:38:02;;;;;;;41.38;37.88;;;24.60;99.90;;;;;;5057683;28;20547;-89
2023/09/09 09:40:29;;;;;;;41.05;37.42;;;24.70;99.90;;;;;;5051319;28;20068;-89
2023/09/09 09:42:55;;;;;;;41.40;37.63;;;24.70;99.90;;;;;;5024503;28;20041;-89
2023/09/09 09:45:25;;;;;;;40.55;36.92;;;24.80;99.90;;;;;;5034846;28;20197;-89
2023/09/09 09:47:52;;;;;;;40.42;36.35;;;24.90;99.90;;;;;;5035202;28;20045;-90
2023/09/09 09:50:28;;;;;;;37.50;34.08;;;25.00;99.90;;;;;;5051539;28;20049;-89
2023/09/09 09:53:02;;;;;;;38.70;35.08;;;25.10;99.90;;;;;;5033392;28;20041;-90
2023/09/09 09:55:30;;;;;;;41.40;37.47;;;25.20;99.90;;;;;;5051575;28;20415;-89
2023/09/09 09:57:58;;;;;;;41.28;37.60;;;25.20;99.90;;;;;;5050268;28;20037;-90
2023/09/09 10:00:25;;;;;;;39.72;36.15;;;25.30;99.90;;;;;;5050156;28;20041;-89
2023/09/09 10:02:58;;;;;;;40.10;36.00;;;25.40;99.90;;;;;;5050530;28;20411;-90
2023/09/09 10:05:29;;;;;;;41.88;37.85;;;25.50;99.90;;;;;;5050409;28;20045;-90
2023/09/09 10:08:08;;;;;;;41.38;37.63;;;25.50;99.90;;;;;;5033568;28;20067;-90
2023/09/09 10:10:40;;;;;;;39.60;36.13;;;25.60;99.90;;;;;;5033780;28;20128;-90
2023/09/09 10:13:22;;;;;;;42.17;38.33;;;25.70;99.90;;;;;;5050209;28;20040;-90
2023/09/09 10:15:49;;;;;;;39.35;35.90;;;25.80;99.90;;;;;;5034048;28;20045;-89
2023/09/09 10:18:16;;;;;;;42.75;38.78;;;25.90;99.90;;;;;;5050020;28;20045;-90
2023/09/09 10:20:42;;;;;;;42.35;38.55;;;26.00;99.90;;;;;;5033812;28;20052;-91
2023/09/09 10:23:08;;;;;;;42.10;38.10;;;26.10;99.90;;;;;;5050075;28;20040;-90
2023/09/09 10:25:34;;;;;;;40.70;36.95;;;26.20;99.90;;;;;;5027810;28;20116;-90
2023/09/09 10:28:00;;;;;;;39.05;35.50;;;26.20;99.90;;;;;;5027925;28;20033;-90
2023/09/09 10:30:27;;;;;;;42.78;38.75;;;26.30;99.90;;;;;;5050474;28;20489;-90
2023/09/09 10:32:55;;;;;;;41.13;37.42;;;26.40;99.90;;;;;;5033902;28;20052;-90
2023/09/09 10:35:22;;;;;;;38.15;34.75;;;26.50;99.90;;;;;;5050625;28;20446;-90
2023/09/09 10:37:50;;;;;;;39.33;35.95;;;26.60;99.90;;;;;;5040842;28;20559;-91
2023/09/09 10:40:17;;;;;;;39.45;35.85;;;26.60;99.90;;;;;;5041187;28;20069;-90
2023/09/09 10:42:44;;;;;;;34.13;31.13;;;26.70;99.90;;;;;;5041464;28;20045;-90
2023/09/09 10:45:30;;;;;;;32.40;29.35;;;26.80;99.90;;;;;;5033107;28;20068;-90
2023/09/09 10:48:07;;;;;;;34.05;30.95;;;26.90;99.90;;;;;;5049571;28;20048;-91
2023/09/09 10:50:52;;;;;;;33.22;30.30;;;27.00;99.90;;;;;;5032496;28;20033;-90
2023/09/09 10:53:26;;;;;;;36.50;33.20;;;27.10;99.90;;;;;;5033394;28;20055;-90
2023/09/09 10:55:55;;;;;;;37.92;34.22;;;27.20;99.90;;;;;;5049622;28;20029;-90
2023/09/09 10:58:30;;;;;;;35.53;32.15;;;27.20;99.90;;;;;;5050008;28;20040;-91
2023/09/09 11:00:57;;;;;;;35.88;32.67;;;27.30;99.90;;;;;;5033326;28;20041;-91
2023/09/09 11:03:26;;;;;;;34.47;31.17;;;27.30;99.90;;;;;;5051513;28;20045;-91
2023/09/09 11:06:06;;;;;;;32.33;29.33;;;27.40;99.90;;;;;;5037380;28;20036;-91
2023/09/09 11:08:46;;;;;;;32.85;29.75;;;27.50;99.90;;;;;;5053265;28;20041;-91
2023/09/09 11:11:15;;;;;;;31.25;27.90;;;27.60;99.90;;;;;;5051444;28;20404;-90
2023/09/09 11:14:03;;;;;;;28.65;25.83;;;27.60;99.90;;;;;;5036583;28;20072;-90
2023/09/09 11:16:36;;;;;;;24.38;21.23;;;27.70;99.90;;;;;;5053342;28;20049;-91
2023/09/09 11:19:09;;;;;;;25.65;23.05;;;27.70;99.90;;;;;;5053720;28;20041;-91
2023/09/09 11:21:36;;;;;;;;;;;27.80;99.90;;;;;;5054514;28;20040;-90
2023/09/09 11:24:02;;;;;;;24.45;21.15;;;27.70;99.90;;;;;;5053997;28;19923;-90
2023/09/09 11:26:28;;;;;;;25.27;19.98;;;27.80;99.90;;;;;;5053235;28;20052;-90
2023/09/09 11:28:54;;;;;;;22.80;20.33;;;28.00;99.90;;;;;;5053132;28;20037;-90
2023/09/09 11:31:20;;;;;;;19.92;16.45;;;28.00;99.90;;;;;;5037131;28;20090;-90
2023/09/09 11:33:46;;;;;;;20.45;18.35;;;28.10;98.70;;;;;;5053457;28;20442;-90
2023/09/09 11:36:16;;;;;;;18.80;16.02;;;28.20;98.20;;;;;;5053619;28;20029;-90
2023/09/09 11:38:43;;;;;;;19.83;17.13;;;28.30;96.10;;;;;;5027613;28;20042;-90
2023/09/09 11:41:09;;;;;;;18.17;15.73;;;28.30;95.10;;;;;;5044258;28;20086;-90
2023/09/09 11:43:35;;;;;;;20.55;18.35;;;28.40;94.40;;;;;;5021743;28;20486;-90
2023/09/09 11:46:00;;;;;;;21.48;18.13;;;28.50;95.00;;;;;;5027655;28;20691;-90
2023/09/09 11:48:26;;;;;;;17.38;14.95;;;28.50;93.80;;;;;;5027641;28;20043;-91
2023/09/09 11:50:52;;;;;;;18.50;14.35;;;28.60;93.30;;;;;;5027599;28;20123;-91
2023/09/09 11:53:22;;;;;;;21.77;17.08;;;28.60;92.90;;;;;;5027126;28;20045;-91
2023/09/09 11:55:54;;;;;;;19.63;15.27;;;28.70;92.60;;;;;;5027409;28;20083;-91
2023/09/09 11:58:20;;;;;;;18.98;17.08;;;28.90;93.80;;;;;;5026486;28;20388;-91
2023/09/09 12:00:46;;;;;;;20.92;17.40;;;29.00;93.50;;;;;;5050977;28;20041;-91
2023/09/09 12:03:19;;;;;;;17.70;15.30;;;29.00;91.80;;;;;;5052778;28;20040;-91
2023/09/09 12:05:45;;;;;;;17.02;14.60;;;29.00;91.00;;;;;;5036318;28;20403;-91
2023/09/09 12:08:11;;;;;;;17.00;11.88;;;29.10;91.80;;;;;;5035058;28;20495;-91
2023/09/09 12:10:37;;;;;;;19.63;12.05;;;29.20;90.30;;;;;;5033376;28;20041;-91
2023/09/09 12:13:06;;;;;;;16.90;12.50;;;29.30;90.60;;;;;;5033332;28;20139;-90
2023/09/09 12:15:32;;;;;;;19.75;11.48;;;29.40;89.10;;;;;;5048878;28;20062;-91
2023/09/09 12:17:59;;;;;;;19.15;11.27;;;29.40;90.30;;;;;;5051717;28;20049;-91
2023/09/09 12:20:25;;;;;;;16.10;12.27;;;29.50;88.00;;;;;;5052517;28;20064;-91
2023/09/09 12:22:52;;;;;;;14.90;12.63;;;29.70;88.30;;;;;;5052668;28;20377;-91
2023/09/09 12:25:30;;;;;;;16.80;11.95;;;29.80;88.30;;;;;;5052817;28;20135;-91
2023/09/09 12:27:56;;;;;;;17.52;13.60;;;29.90;87.60;;;;;;5051545;28;20091;-91
2023/09/09 12:30:39;;;;;;;17.50;13.35;;;29.90;86.80;;;;;;5051660;28;20515;-91
2023/09/09 12:33:13;;;;;;;18.00;13.35;;;30.10;86.60;;;;;;5051530;28;20086;-91
2023/09/09 12:35:43;;;;;;;19.20;12.45;;;30.10;86.10;;;;;;5035487;28;20084;-90